Argus, California
Current Conditions -  °F | °C
As of 12:56 PM on Monday 24 Nov 2014 (Local Time) from KNID Reporting Station
Broken Clouds Broken Clouds  
Wind Chill: 65°   Ceiling: 28000
Heat Index: 65°   Visibility: 10mi
Dew Point: 12°   Wind: 6mph
Humidity: 13%   Direction: 110°ESE
Pressure: 30.35"   Gusts: NA
Location:  35.6496°N, 117.375°W
Report Text: KNID 242056Z 11005KT 10SM BKN280 18/M11 A3035 RMK AO2 SLP277 T01831111 56018 $
Loading
Personal Weather Stations






























Interactive Weather Map New forecast layout! Learn more

10-Day Weather Forecast

Advertisements
Track Severe Weather on mobile